TimeCST,TemperatureF,Dew PointF,Humidity,Sea Level PressureIn,VisibilityMPH,Wind Direction,Wind SpeedMPH,Gust SpeedMPH,PrecipitationIn,Events,Conditions,WindDirDegrees,DateUTC
12:56 AM,37.0,34.0,89,29.90,9.0,SSW,16.1,24.2,0.00,Rain,Light Rain,200,2012-11-06 06:56:00
1:56 AM,37.0,34.0,89,29.89,10.0,SSW,11.5,18.4,0.00,,Scattered Clouds,200,2012-11-06 07:56:00
2:56 AM,37.9,35.1,89,29.89,10.0,Variable,5.8,-,N/A,,Overcast,0,2012-11-06 08:56:00
3:56 AM,37.9,35.1,89,29.89,10.0,West,9.2,-,N/A,,Scattered Clouds,280,2012-11-06 09:56:00
4:56 AM,39.0,36.0,89,29.91,10.0,NW,12.7,21.9,N/A,,Clear,310,2012-11-06 10:56:00
5:56 AM,39.0,34.0,82,29.94,10.0,WNW,17.3,-,N/A,,Clear,300,2012-11-06 11:56:00
6:56 AM,37.9,33.1,83,29.96,10.0,WNW,13.8,23.0,N/A,,Clear,300,2012-11-06 12:56:00
7:56 AM,37.9,32.0,79,29.99,10.0,NW,15.0,21.9,N/A,,Partly Cloudy,310,2012-11-06 13:56:00
8:56 AM,41.0,32.0,70,29.99,10.0,NW,24.2,31.1,N/A,,Partly Cloudy,310,2012-11-06 14:56:00
9:56 AM,44.1,33.1,65,30.00,10.0,NW,25.3,32.2,N/A,,Scattered Clouds,320,2012-11-06 15:56:00
10:56 AM,46.0,34.0,63,30.00,10.0,NW,29.9,35.7,N/A,,Scattered Clouds,310,2012-11-06 16:56:00
11:56 AM,48.9,34.0,56,29.99,10.0,NW,26.5,38.0,N/A,,Scattered Clouds,320,2012-11-06 17:56:00
12:56 PM,51.1,34.0,52,29.98,10.0,NW,29.9,40.3,N/A,,Scattered Clouds,310,2012-11-06 18:56:00
1:56 PM,51.1,34.0,52,29.99,10.0,NW,31.1,38.0,N/A,,Mostly Cloudy,320,2012-11-06 19:56:00
2:56 PM,50.0,34.0,54,29.99,10.0,NNW,26.5,39.1,N/A,,Mostly Cloudy,330,2012-11-06 20:56:00
3:56 PM,48.9,33.1,54,30.01,10.0,NW,28.8,39.1,N/A,,Scattered Clouds,320,2012-11-06 21:56:00
4:56 PM,46.9,33.1,59,30.03,10.0,NNW,19.6,31.1,N/A,,Scattered Clouds,330,2012-11-06 22:56:00
5:56 PM,44.1,32.0,63,30.05,10.0,NW,11.5,21.9,N/A,,Partly Cloudy,320,2012-11-06 23:56:00
6:56 PM,39.0,32.0,76,30.06,10.0,NW,8.1,-,N/A,,Clear,310,2012-11-07 00:56:00
7:56 PM,37.0,30.9,79,30.06,10.0,WNW,6.9,-,N/A,,Clear,290,2012-11-07 01:56:00
8:56 PM,37.0,30.9,79,30.08,10.0,NW,8.1,-,N/A,,Clear,320,2012-11-07 02:56:00
9:56 PM,35.1,30.9,85,30.09,10.0,WNW,8.1,-,N/A,,Clear,290,2012-11-07 03:56:00
10:56 PM,35.1,30.0,82,30.09,10.0,WNW,9.2,-,N/A,,Clear,300,2012-11-07 04:56:00
11:56 PM,33.1,30.0,89,30.10,10.0,WNW,10.4,-,N/A,,Clear,300,2012-11-07 05:56:00